sensor_id;sensor_type;location;lat;lon;timestamp;temperature;humidity
20288;DHT22;10303;51.960;8.372;2023-01-28T00:00:08;6.30;99.90
20288;DHT22;10303;51.960;8.372;2023-01-28T00:02:35;6.30;99.90
20288;DHT22;10303;51.960;8.372;2023-01-28T00:05:02;6.20;99.90
20288;DHT22;10303;51.960;8.372;2023-01-28T00:07:28;6.30;99.90
20288;DHT22;10303;51.960;8.372;2023-01-28T00:09:54;6.30;99.90
20288;DHT22;10303;51.960;8.372;2023-01-28T00:12:20;6.30;99.90
20288;DHT22;10303;51.960;8.372;2023-01-28T00:14:46;6.20;99.90
20288;DHT22;10303;51.960;8.372;2023-01-28T00:17:13;6.20;99.90
20288;DHT22;10303;51.960;8.372;2023-01-28T00:19:40;6.60;99.90
20288;DHT22;10303;51.960;8.372;2023-01-28T00:22:06;6.20;99.90
20288;DHT22;10303;51.960;8.372;2023-01-28T00:24:32;6.10;99.90
20288;DHT22;10303;51.960;8.372;2023-01-28T00:26:57;6.20;99.90
20288;DHT22;10303;51.960;8.372;2023-01-28T00:29:23;6.10;99.90
20288;DHT22;10303;51.960;8.372;2023-01-28T00:31:50;6.10;99.90
20288;DHT22;10303;51.960;8.372;2023-01-28T00:34:15;6.20;99.90
20288;DHT22;10303;51.960;8.372;2023-01-28T00:36:41;6.10;99.90
20288;DHT22;10303;51.960;8.372;2023-01-28T00:39:13;6.10;99.90
20288;DHT22;10303;51.960;8.372;2023-01-28T00:41:41;6.10;99.90
20288;DHT22;10303;51.960;8.372;2023-01-28T00:44:07;6.10;99.90
20288;DHT22;10303;51.960;8.372;2023-01-28T00:46:34;6.10;99.90
20288;DHT22;10303;51.960;8.372;2023-01-28T00:49:00;6.10;99.90
20288;DHT22;10303;51.960;8.372;2023-01-28T00:51:26;6.10;99.90
20288;DHT22;10303;51.960;8.372;2023-01-28T00:53:52;6.10;99.90
20288;DHT22;10303;51.960;8.372;2023-01-28T00:56:18;6.10;99.90
20288;DHT22;10303;51.960;8.372;2023-01-28T00:58:45;6.10;99.90
20288;DHT22;10303;51.960;8.372;2023-01-28T01:03:42;6.00;99.90
20288;DHT22;10303;51.960;8.372;2023-01-28T01:06:10;6.00;99.90
20288;DHT22;10303;51.960;8.372;2023-01-28T01:08:37;6.00;99.90
20288;DHT22;10303;51.960;8.372;2023-01-28T01:11:11;6.00;99.90
20288;DHT22;10303;51.960;8.372;2023-01-28T01:13:37;6.00;99.90
20288;DHT22;10303;51.960;8.372;2023-01-28T01:16:08;6.10;99.90
20288;DHT22;10303;51.960;8.372;2023-01-28T01:18:37;6.00;99.90
20288;DHT22;10303;51.960;8.372;2023-01-28T01:21:26;6.00;99.90
20288;DHT22;10303;51.960;8.372;2023-01-28T01:23:54;6.00;99.90
20288;DHT22;10303;51.960;8.372;2023-01-28T01:26:21;6.00;99.90
20288;DHT22;10303;51.960;8.372;2023-01-28T01:28:47;6.00;99.90
20288;DHT22;10303;51.960;8.372;2023-01-28T01:31:15;6.00;99.90
20288;DHT22;10303;51.960;8.372;2023-01-28T01:33:44;5.90;99.90
20288;DHT22;10303;51.960;8.372;2023-01-28T01:36:13;6.00;99.90
20288;DHT22;10303;51.960;8.372;2023-01-28T01:38:41;6.00;99.90
20288;DHT22;10303;51.960;8.372;2023-01-28T01:41:08;6.00;99.90
20288;DHT22;10303;51.960;8.372;2023-01-28T01:43:54;6.00;99.90
20288;DHT22;10303;51.960;8.372;2023-01-28T01:49:18;6.00;99.90
20288;DHT22;10303;51.960;8.372;2023-01-28T01:51:49;6.00;99.90
20288;DHT22;10303;51.960;8.372;2023-01-28T01:54:21;6.00;99.90
20288;DHT22;10303;51.960;8.372;2023-01-28T01:56:49;6.00;99.90
20288;DHT22;10303;51.960;8.372;2023-01-28T01:59:21;6.00;99.90
20288;DHT22;10303;51.960;8.372;2023-01-28T02:01:51;5.90;99.90
20288;DHT22;10303;51.960;8.372;2023-01-28T02:04:22;5.90;99.90
20288;DHT22;10303;51.960;8.372;2023-01-28T02:06:51;5.90;99.90
20288;DHT22;10303;51.960;8.372;2023-01-28T02:09:26;6.00;99.90
20288;DHT22;10303;51.960;8.372;2023-01-28T02:12:29;5.90;99.90
20288;DHT22;10303;51.960;8.372;2023-01-28T02:15:07;5.90;99.90
20288;DHT22;10303;51.960;8.372;2023-01-28T02:17:36;5.90;99.90
20288;DHT22;10303;51.960;8.372;2023-01-28T02:20:07;5.90;99.90
20288;DHT22;10303;51.960;8.372;2023-01-28T02:34:01;5.90;99.90
20288;DHT22;10303;51.960;8.372;2023-01-28T02:39:36;5.80;99.90
20288;DHT22;10303;51.960;8.372;2023-01-28T02:42:17;5.80;99.90
20288;DHT22;10303;51.960;8.372;2023-01-28T02:44:46;5.80;99.90
20288;DHT22;10303;51.960;8.372;2023-01-28T02:47:13;5.80;99.90
20288;DHT22;10303;51.960;8.372;2023-01-28T02:50:08;5.90;99.90
20288;DHT22;10303;51.960;8.372;2023-01-28T02:52:59;5.80;99.90
20288;DHT22;10303;51.960;8.372;2023-01-28T02:56:06;5.80;99.90
20288;DHT22;10303;51.960;8.372;2023-01-28T03:01:41;5.80;99.90
20288;DHT22;10303;51.960;8.372;2023-01-28T03:04:33;5.80;99.90
20288;DHT22;10303;51.960;8.372;2023-01-28T03:07:06;5.70;99.90
20288;DHT22;10303;51.960;8.372;2023-01-28T03:09:38;5.70;99.90
20288;DHT22;10303;51.960;8.372;2023-01-28T03:12:26;5.80;99.90
20288;DHT22;10303;51.960;8.372;2023-01-28T03:15:20;5.70;99.90
20288;DHT22;10303;51.960;8.372;2023-01-28T03:18:10;5.70;99.90
20288;DHT22;10303;51.960;8.372;2023-01-28T03:21:33;5.80;99.90
20288;DHT22;10303;51.960;8.372;2023-01-28T03:24:23;5.70;99.90
20288;DHT22;10303;51.960;8.372;2023-01-28T03:27:18;5.80;99.90
20288;DHT22;10303;51.960;8.372;2023-01-28T03:30:26;5.70;99.90
20288;DHT22;10303;51.960;8.372;2023-01-28T03:33:27;5.80;99.90
20288;DHT22;10303;51.960;8.372;2023-01-28T03:36:15;5.70;99.90
20288;DHT22;10303;51.960;8.372;2023-01-28T03:38:59;5.70;99.90
20288;DHT22;10303;51.960;8.372;2023-01-28T03:41:26;5.70;99.90
20288;DHT22;10303;51.960;8.372;2023-01-28T03:43:54;5.70;99.90
20288;DHT22;10303;51.960;8.372;2023-01-28T03:46:21;5.80;99.90
20288;DHT22;10303;51.960;8.372;2023-01-28T03:48:47;5.70;99.90
20288;DHT22;10303;51.960;8.372;2023-01-28T03:51:14;5.70;99.90
20288;DHT22;10303;51.960;8.372;2023-01-28T03:53:40;5.80;99.90
20288;DHT22;10303;51.960;8.372;2023-01-28T03:56:06;5.70;99.90
20288;DHT22;10303;51.960;8.372;2023-01-28T03:58:33;5.70;99.90
20288;DHT22;10303;51.960;8.372;2023-01-28T04:01:12;5.70;99.90
20288;DHT22;10303;51.960;8.372;2023-01-28T04:03:39;5.70;99.90
20288;DHT22;10303;51.960;8.372;2023-01-28T04:06:10;5.70;99.90
20288;DHT22;10303;51.960;8.372;2023-01-28T04:08:55;5.70;99.90
20288;DHT22;10303;51.960;8.372;2023-01-28T04:11:32;5.70;99.90
20288;DHT22;10303;51.960;8.372;2023-01-28T04:14:01;5.70;99.90
20288;DHT22;10303;51.960;8.372;2023-01-28T04:16:37;5.80;99.90
20288;DHT22;10303;51.960;8.372;2023-01-28T04:19:03;5.70;99.90
20288;DHT22;10303;51.960;8.372;2023-01-28T04:21:30;5.70;99.90
20288;DHT22;10303;51.960;8.372;2023-01-28T04:23:58;5.70;99.90
20288;DHT22;10303;51.960;8.372;2023-01-28T04:26:24;5.70;99.90
20288;DHT22;10303;51.960;8.372;2023-01-28T04:28:51;5.70;99.90
20288;DHT22;10303;51.960;8.372;2023-01-28T04:31:17;5.80;99.90
20288;DHT22;10303;51.960;8.372;2023-01-28T04:33:53;5.70;99.90
20288;DHT22;10303;51.960;8.372;2023-01-28T04:36:25;5.80;99.90
20288;DHT22;10303;51.960;8.372;2023-01-28T04:39:10;5.70;99.90
20288;DHT22;10303;51.960;8.372;2023-01-28T04:41:36;5.70;99.90
20288;DHT22;10303;51.960;8.372;2023-01-28T04:44:23;5.60;99.90
20288;DHT22;10303;51.960;8.372;2023-01-28T04:46:55;5.70;99.90
20288;DHT22;10303;51.960;8.372;2023-01-28T04:49:48;5.60;99.90
20288;DHT22;10303;51.960;8.372;2023-01-28T04:52:26;5.60;99.90
20288;DHT22;10303;51.960;8.372;2023-01-28T04:55:04;5.70;99.90
20288;DHT22;10303;51.960;8.372;2023-01-28T04:57:30;5.60;99.90
20288;DHT22;10303;51.960;8.372;2023-01-28T04:59:57;5.70;99.90
20288;DHT22;10303;51.960;8.372;2023-01-28T05:02:24;5.60;99.90
20288;DHT22;10303;51.960;8.372;2023-01-28T05:04:51;5.60;99.90
20288;DHT22;10303;51.960;8.372;2023-01-28T05:07:36;5.60;99.90
20288;DHT22;10303;51.960;8.372;2023-01-28T05:10:03;5.70;99.90
20288;DHT22;10303;51.960;8.372;2023-01-28T05:12:29;5.60;99.90
20288;DHT22;10303;51.960;8.372;2023-01-28T05:15:05;5.60;99.90
20288;DHT22;10303;51.960;8.372;2023-01-28T05:17:31;5.60;99.90
20288;DHT22;10303;51.960;8.372;2023-01-28T05:19:57;5.80;99.90
20288;DHT22;10303;51.960;8.372;2023-01-28T05:22:26;5.70;99.90
20288;DHT22;10303;51.960;8.372;2023-01-28T05:25:08;5.60;99.90
20288;DHT22;10303;51.960;8.372;2023-01-28T05:27:34;5.60;99.90
20288;DHT22;10303;51.960;8.372;2023-01-28T05:30:00;5.80;99.90
20288;DHT22;10303;51.960;8.372;2023-01-28T05:32:26;5.70;99.90
20288;DHT22;10303;51.960;8.372;2023-01-28T05:34:52;5.90;99.90
20288;DHT22;10303;51.960;8.372;2023-01-28T05:37:18;5.70;99.90
20288;DHT22;10303;51.960;8.372;2023-01-28T05:39:45;5.60;99.90
20288;DHT22;10303;51.960;8.372;2023-01-28T05:42:11;5.60;99.90
20288;DHT22;10303;51.960;8.372;2023-01-28T05:44:42;5.70;99.90
20288;DHT22;10303;51.960;8.372;2023-01-28T05:47:15;5.70;99.90
20288;DHT22;10303;51.960;8.372;2023-01-28T05:50:08;5.60;99.90
20288;DHT22;10303;51.960;8.372;2023-01-28T05:53:05;5.60;99.90
20288;DHT22;10303;51.960;8.372;2023-01-28T05:55:32;5.70;99.90
20288;DHT22;10303;51.960;8.372;2023-01-28T05:57:59;5.60;99.90
20288;DHT22;10303;51.960;8.372;2023-01-28T06:00:25;6.20;99.90
20288;DHT22;10303;51.960;8.372;2023-01-28T06:02:52;5.80;99.90
20288;DHT22;10303;51.960;8.372;2023-01-28T06:05:19;5.60;99.90
20288;DHT22;10303;51.960;8.372;2023-01-28T06:07:47;6.00;99.90
20288;DHT22;10303;51.960;8.372;2023-01-28T06:10:14;5.60;99.90
20288;DHT22;10303;51.960;8.372;2023-01-28T06:12:43;5.60;99.90
20288;DHT22;10303;51.960;8.372;2023-01-28T06:15:32;5.60;99.90
20288;DHT22;10303;51.960;8.372;2023-01-28T06:18:01;5.60;99.90
20288;DHT22;10303;51.960;8.372;2023-01-28T06:20:31;5.70;99.90
20288;DHT22;10303;51.960;8.372;2023-01-28T06:22:58;5.60;99.90
20288;DHT22;10303;51.960;8.372;2023-01-28T06:25:24;5.60;99.90
20288;DHT22;10303;51.960;8.372;2023-01-28T06:27:51;5.60;99.90
20288;DHT22;10303;51.960;8.372;2023-01-28T06:30:17;5.60;99.90
20288;DHT22;10303;51.960;8.372;2023-01-28T06:32:43;5.60;99.90
20288;DHT22;10303;51.960;8.372;2023-01-28T06:35:09;5.60;99.90
20288;DHT22;10303;51.960;8.372;2023-01-28T06:37:36;5.60;99.90
20288;DHT22;10303;51.960;8.372;2023-01-28T06:40:02;5.60;99.90
20288;DHT22;10303;51.960;8.372;2023-01-28T06:42:28;5.60;99.90
20288;DHT22;10303;51.960;8.372;2023-01-28T06:44:54;5.60;99.90
20288;DHT22;10303;51.960;8.372;2023-01-28T06:47:20;5.80;99.90
20288;DHT22;10303;51.960;8.372;2023-01-28T06:49:46;5.60;99.90
20288;DHT22;10303;51.960;8.372;2023-01-28T06:52:12;5.60;99.90
20288;DHT22;10303;51.960;8.372;2023-01-28T06:54:38;5.60;99.90
20288;DHT22;10303;51.960;8.372;2023-01-28T06:57:03;5.60;99.90
20288;DHT22;10303;51.960;8.372;2023-01-28T06:59:29;5.60;99.90
20288;DHT22;10303;51.960;8.372;2023-01-28T07:01:55;5.80;99.90
20288;DHT22;10303;51.960;8.372;2023-01-28T07:04:21;5.80;99.90
20288;DHT22;10303;51.960;8.372;2023-01-28T07:06:47;5.60;99.90
20288;DHT22;10303;51.960;8.372;2023-01-28T07:09:13;5.50;99.90
20288;DHT22;10303;51.960;8.372;2023-01-28T07:11:39;5.70;99.90
20288;DHT22;10303;51.960;8.372;2023-01-28T07:14:04;5.50;99.90
20288;DHT22;10303;51.960;8.372;2023-01-28T07:16:31;5.60;99.90
20288;DHT22;10303;51.960;8.372;2023-01-28T07:18:56;5.60;99.90
20288;DHT22;10303;51.960;8.372;2023-01-28T07:21:22;5.50;99.90
20288;DHT22;10303;51.960;8.372;2023-01-28T07:23:48;5.50;99.90
20288;DHT22;10303;51.960;8.372;2023-01-28T07:26:14;5.60;99.90
20288;DHT22;10303;51.960;8.372;2023-01-28T07:28:40;5.50;99.90
20288;DHT22;10303;51.960;8.372;2023-01-28T07:31:06;5.90;99.90
20288;DHT22;10303;51.960;8.372;2023-01-28T07:33:32;5.50;99.90
20288;DHT22;10303;51.960;8.372;2023-01-28T07:35:58;5.50;99.90
20288;DHT22;10303;51.960;8.372;2023-01-28T07:38:24;5.70;99.90
20288;DHT22;10303;51.960;8.372;2023-01-28T07:40:50;5.50;99.90
20288;DHT22;10303;51.960;8.372;2023-01-28T07:43:16;5.50;99.90
20288;DHT22;10303;51.960;8.372;2023-01-28T07:45:42;5.50;99.90
20288;DHT22;10303;51.960;8.372;2023-01-28T07:48:11;5.60;99.90
20288;DHT22;10303;51.960;8.372;2023-01-28T07:50:38;5.50;99.90
20288;DHT22;10303;51.960;8.372;2023-01-28T07:53:07;5.50;99.90
20288;DHT22;10303;51.960;8.372;2023-01-28T07:55:36;5.50;99.90
20288;DHT22;10303;51.960;8.372;2023-01-28T07:58:06;5.60;99.90
20288;DHT22;10303;51.960;8.372;2023-01-28T08:00:35;5.50;99.90
20288;DHT22;10303;51.960;8.372;2023-01-28T08:03:05;5.70;99.90
20288;DHT22;10303;51.960;8.372;2023-01-28T08:05:45;5.60;99.90
20288;DHT22;10303;51.960;8.372;2023-01-28T08:08:13;5.40;99.90
20288;DHT22;10303;51.960;8.372;2023-01-28T08:10:40;5.40;99.90
20288;DHT22;10303;51.960;8.372;2023-01-28T08:13:09;5.50;99.90
20288;DHT22;10303;51.960;8.372;2023-01-28T08:15:36;5.50;99.90
20288;DHT22;10303;51.960;8.372;2023-01-28T08:18:04;5.50;99.90
20288;DHT22;10303;51.960;8.372;2023-01-28T08:20:31;5.50;99.90
20288;DHT22;10303;51.960;8.372;2023-01-28T08:23:24;5.50;99.90
20288;DHT22;10303;51.960;8.372;2023-01-28T08:25:52;5.60;99.90
20288;DHT22;10303;51.960;8.372;2023-01-28T08:28:19;5.50;99.90
20288;DHT22;10303;51.960;8.372;2023-01-28T08:30:46;5.70;99.90
20288;DHT22;10303;51.960;8.372;2023-01-28T08:33:14;5.50;99.90
20288;DHT22;10303;51.960;8.372;2023-01-28T08:35:40;5.50;99.90
20288;DHT22;10303;51.960;8.372;2023-01-28T08:38:07;5.50;99.90
20288;DHT22;10303;51.960;8.372;2023-01-28T08:40:34;5.60;99.90
20288;DHT22;10303;51.960;8.372;2023-01-28T08:43:00;5.50;99.90
20288;DHT22;10303;51.960;8.372;2023-01-28T08:45:27;5.60;99.90
20288;DHT22;10303;51.960;8.372;2023-01-28T08:48:00;5.50;99.90
20288;DHT22;10303;51.960;8.372;2023-01-28T08:50:33;5.60;99.90
20288;DHT22;10303;51.960;8.372;2023-01-28T08:53:06;5.60;99.90
20288;DHT22;10303;51.960;8.372;2023-01-28T08:55:35;5.60;99.90
20288;DHT22;10303;51.960;8.372;2023-01-28T08:58:04;5.60;99.90
20288;DHT22;10303;51.960;8.372;2023-01-28T09:00:32;5.60;99.90
20288;DHT22;10303;51.960;8.372;2023-01-28T09:02:59;5.60;99.90
20288;DHT22;10303;51.960;8.372;2023-01-28T09:05:25;5.70;99.90
20288;DHT22;10303;51.960;8.372;2023-01-28T09:07:52;5.60;99.90
20288;DHT22;10303;51.960;8.372;2023-01-28T09:10:18;5.70;99.90
20288;DHT22;10303;51.960;8.372;2023-01-28T09:12:45;5.60;99.90
20288;DHT22;10303;51.960;8.372;2023-01-28T09:15:11;6.10;99.90
20288;DHT22;10303;51.960;8.372;2023-01-28T09:17:38;5.60;99.90
20288;DHT22;10303;51.960;8.372;2023-01-28T09:20:06;6.20;99.90
20288;DHT22;10303;51.960;8.372;2023-01-28T09:22:33;5.60;99.90
20288;DHT22;10303;51.960;8.372;2023-01-28T09:24:59;5.60;99.90
20288;DHT22;10303;51.960;8.372;2023-01-28T09:27:25;5.50;99.90
20288;DHT22;10303;51.960;8.372;2023-01-28T09:29:51;5.60;99.90
20288;DHT22;10303;51.960;8.372;2023-01-28T09:32:16;5.50;99.90
20288;DHT22;10303;51.960;8.372;2023-01-28T09:34:42;5.50;99.90
20288;DHT22;10303;51.960;8.372;2023-01-28T09:37:10;5.60;99.90
20288;DHT22;10303;51.960;8.372;2023-01-28T09:39:36;5.50;99.90
20288;DHT22;10303;51.960;8.372;2023-01-28T09:45:39;5.50;99.90
20288;DHT22;10303;51.960;8.372;2023-01-28T09:48:15;5.50;99.90
20288;DHT22;10303;51.960;8.372;2023-01-28T09:50:52;5.50;99.90
20288;DHT22;10303;51.960;8.372;2023-01-28T09:53:20;5.50;99.90
20288;DHT22;10303;51.960;8.372;2023-01-28T09:55:54;5.50;99.90
20288;DHT22;10303;51.960;8.372;2023-01-28T09:58:22;5.50;99.90
20288;DHT22;10303;51.960;8.372;2023-01-28T10:04:16;5.50;99.90
20288;DHT22;10303;51.960;8.372;2023-01-28T10:09:55;5.50;99.90
20288;DHT22;10303;51.960;8.372;2023-01-28T10:12:58;5.50;99.90
20288;DHT22;10303;51.960;8.372;2023-01-28T10:15:49;5.50;99.90
20288;DHT22;10303;51.960;8.372;2023-01-28T10:19:03;5.50;99.90
20288;DHT22;10303;51.960;8.372;2023-01-28T10:21:42;5.50;99.90
20288;DHT22;10303;51.960;8.372;2023-01-28T10:24:22;5.50;99.90
20288;DHT22;10303;51.960;8.372;2023-01-28T10:26:53;5.50;99.90
20288;DHT22;10303;51.960;8.372;2023-01-28T10:29:23;5.50;99.90
20288;DHT22;10303;51.960;8.372;2023-01-28T10:32:11;5.60;99.90
20288;DHT22;10303;51.960;8.372;2023-01-28T10:34:46;5.50;99.90
20288;DHT22;10303;51.960;8.372;2023-01-28T10:37:13;5.60;99.90
20288;DHT22;10303;51.960;8.372;2023-01-28T10:39:40;5.50;99.90
20288;DHT22;10303;51.960;8.372;2023-01-28T10:42:26;5.60;99.90
20288;DHT22;10303;51.960;8.372;2023-01-28T10:45:20;5.70;99.90
20288;DHT22;10303;51.960;8.372;2023-01-28T10:48:23;5.60;99.90
20288;DHT22;10303;51.960;8.372;2023-01-28T10:50:58;5.70;99.90
20288;DHT22;10303;51.960;8.372;2023-01-28T10:53:45;5.70;99.90
20288;DHT22;10303;51.960;8.372;2023-01-28T10:56:24;5.70;99.90
20288;DHT22;10303;51.960;8.372;2023-01-28T10:59:06;5.70;99.90
20288;DHT22;10303;51.960;8.372;2023-01-28T11:01:49;5.70;99.90
20288;DHT22;10303;51.960;8.372;2023-01-28T11:04:28;5.60;99.90
20288;DHT22;10303;51.960;8.372;2023-01-28T11:07:00;5.60;99.90
20288;DHT22;10303;51.960;8.372;2023-01-28T11:09:48;5.70;99.90
20288;DHT22;10303;51.960;8.372;2023-01-28T11:15:02;5.70;99.90
20288;DHT22;10303;51.960;8.372;2023-01-28T11:17:35;5.70;99.90
20288;DHT22;10303;51.960;8.372;2023-01-28T11:20:18;5.70;99.90
20288;DHT22;10303;51.960;8.372;2023-01-28T11:22:47;5.70;99.90
20288;DHT22;10303;51.960;8.372;2023-01-28T11:27:48;5.80;99.90
20288;DHT22;10303;51.960;8.372;2023-01-28T11:30:37;5.80;99.90
20288;DHT22;10303;51.960;8.372;2023-01-28T11:33:43;5.90;99.90
20288;DHT22;10303;51.960;8.372;2023-01-28T11:36:23;5.80;99.90
20288;DHT22;10303;51.960;8.372;2023-01-28T11:39:16;5.80;99.90
20288;DHT22;10303;51.960;8.372;2023-01-28T11:41:46;5.80;99.90
20288;DHT22;10303;51.960;8.372;2023-01-28T11:44:26;5.90;99.90
20288;DHT22;10303;51.960;8.372;2023-01-28T11:47:15;6.10;99.90
20288;DHT22;10303;51.960;8.372;2023-01-28T12:01:17;6.20;99.90
20288;DHT22;10303;51.960;8.372;2023-01-28T12:04:11;6.20;99.90
20288;DHT22;10303;51.960;8.372;2023-01-28T12:07:08;6.30;99.90
20288;DHT22;10303;51.960;8.372;2023-01-28T12:21:05;7.30;99.90
20288;DHT22;10303;51.960;8.372;2023-01-28T12:26:24;7.90;99.90
20288;DHT22;10303;51.960;8.372;2023-01-28T12:29:24;8.30;99.90
20288;DHT22;10303;51.960;8.372;2023-01-28T12:38:13;9.20;99.90
20288;DHT22;10303;51.960;8.372;2023-01-28T12:40:58;9.50;99.90
20288;DHT22;10303;51.960;8.372;2023-01-28T12:43:46;9.70;99.90
20288;DHT22;10303;51.960;8.372;2023-01-28T12:52:23;10.50;99.90
20288;DHT22;10303;51.960;8.372;2023-01-28T12:57:37;10.90;99.90
20288;DHT22;10303;51.960;8.372;2023-01-28T13:00:05;11.20;99.90
20288;DHT22;10303;51.960;8.372;2023-01-28T13:02:55;11.30;99.90
20288;DHT22;10303;51.960;8.372;2023-01-28T13:05:35;11.40;99.90
20288;DHT22;10303;51.960;8.372;2023-01-28T13:08:14;11.60;99.90
20288;DHT22;10303;51.960;8.372;2023-01-28T13:10:47;11.50;91.20
20288;DHT22;10303;51.960;8.372;2023-01-28T13:15:59;11.70;97.00
20288;DHT22;10303;51.960;8.372;2023-01-28T13:21:06;11.50;86.40
20288;DHT22;10303;51.960;8.372;2023-01-28T13:23:42;11.60;93.10
20288;DHT22;10303;51.960;8.372;2023-01-28T13:28:47;11.30;88.40
20288;DHT22;10303;51.960;8.372;2023-01-28T13:31:16;11.40;88.40
20288;DHT22;10303;51.960;8.372;2023-01-28T13:34:03;10.60;82.10
20288;DHT22;10303;51.960;8.372;2023-01-28T13:39:14;10.70;89.40
20288;DHT22;10303;51.960;8.372;2023-01-28T13:44:28;10.70;89.60
20288;DHT22;10303;51.960;8.372;2023-01-28T13:50:11;10.60;90.20
20288;DHT22;10303;51.960;8.372;2023-01-28T13:52:46;10.30;88.00
20288;DHT22;10303;51.960;8.372;2023-01-28T13:55:34;10.30;87.80
20288;DHT22;10303;51.960;8.372;2023-01-28T14:12:04;10.00;90.20
20288;DHT22;10303;51.960;8.372;2023-01-28T14:17:47;9.90;91.00
20288;DHT22;10303;51.960;8.372;2023-01-28T14:20:33;9.80;90.40
20288;DHT22;10303;51.960;8.372;2023-01-28T14:23:14;9.80;91.50
20288;DHT22;10303;51.960;8.372;2023-01-28T14:28:28;9.70;91.80
20288;DHT22;10303;51.960;8.372;2023-01-28T14:31:10;9.60;91.50
20288;DHT22;10303;51.960;8.372;2023-01-28T14:33:51;9.60;92.00
20288;DHT22;10303;51.960;8.372;2023-01-28T14:36:18;9.60;92.50
20288;DHT22;10303;51.960;8.372;2023-01-28T14:38:45;9.50;91.80
20288;DHT22;10303;51.960;8.372;2023-01-28T14:41:25;9.50;91.90
20288;DHT22;10303;51.960;8.372;2023-01-28T14:43:53;9.50;90.80
20288;DHT22;10303;51.960;8.372;2023-01-28T14:46:39;9.30;90.90
20288;DHT22;10303;51.960;8.372;2023-01-28T14:50:10;9.20;86.00
20288;DHT22;10303;51.960;8.372;2023-01-28T14:55:56;8.00;87.50
20288;DHT22;10303;51.960;8.372;2023-01-28T14:58:47;7.60;90.30
20288;DHT22;10303;51.960;8.372;2023-01-28T15:01:24;7.60;90.20
20288;DHT22;10303;51.960;8.372;2023-01-28T15:03:53;7.60;90.70
20288;DHT22;10303;51.960;8.372;2023-01-28T15:06:21;7.60;90.70
20288;DHT22;10303;51.960;8.372;2023-01-28T15:09:07;7.50;90.90
20288;DHT22;10303;51.960;8.372;2023-01-28T15:11:39;7.70;91.50
20288;DHT22;10303;51.960;8.372;2023-01-28T15:14:29;7.80;91.80
20288;DHT22;10303;51.960;8.372;2023-01-28T15:16:57;7.80;90.70
20288;DHT22;10303;51.960;8.372;2023-01-28T15:19:50;7.70;90.20
20288;DHT22;10303;51.960;8.372;2023-01-28T15:22:21;7.50;90.50
20288;DHT22;10303;51.960;8.372;2023-01-28T15:24:50;7.60;91.50
20288;DHT22;10303;51.960;8.372;2023-01-28T15:27:17;7.70;91.90
20288;DHT22;10303;51.960;8.372;2023-01-28T15:29:52;7.70;91.90
20288;DHT22;10303;51.960;8.372;2023-01-28T15:32:28;7.80;92.20
20288;DHT22;10303;51.960;8.372;2023-01-28T15:34:58;8.00;91.60
20288;DHT22;10303;51.960;8.372;2023-01-28T15:37:25;7.70;91.00
20288;DHT22;10303;51.960;8.372;2023-01-28T15:40:03;7.50;91.30
20288;DHT22;10303;51.960;8.372;2023-01-28T15:42:36;7.30;90.80
20288;DHT22;10303;51.960;8.372;2023-01-28T15:45:03;7.10;91.50
20288;DHT22;10303;51.960;8.372;2023-01-28T15:47:31;7.10;91.60
20288;DHT22;10303;51.960;8.372;2023-01-28T15:50:03;7.10;91.70
20288;DHT22;10303;51.960;8.372;2023-01-28T15:52:36;7.00;91.40
20288;DHT22;10303;51.960;8.372;2023-01-28T15:55:06;6.90;91.80
20288;DHT22;10303;51.960;8.372;2023-01-28T15:57:53;7.00;92.00
20288;DHT22;10303;51.960;8.372;2023-01-28T16:00:20;6.90;91.60
20288;DHT22;10303;51.960;8.372;2023-01-28T16:02:53;6.80;91.70
20288;DHT22;10303;51.960;8.372;2023-01-28T16:05:26;6.60;91.80
20288;DHT22;10303;51.960;8.372;2023-01-28T16:07:57;6.50;92.00
20288;DHT22;10303;51.960;8.372;2023-01-28T16:10:28;6.40;92.20
20288;DHT22;10303;51.960;8.372;2023-01-28T16:13:21;6.40;92.40
20288;DHT22;10303;51.960;8.372;2023-01-28T16:15:51;6.40;92.70
20288;DHT22;10303;51.960;8.372;2023-01-28T16:21:10;6.30;92.70
20288;DHT22;10303;51.960;8.372;2023-01-28T16:23:50;6.30;92.80
20288;DHT22;10303;51.960;8.372;2023-01-28T16:26:24;6.20;92.90
20288;DHT22;10303;51.960;8.372;2023-01-28T16:28:52;6.20;93.00
20288;DHT22;10303;51.960;8.372;2023-01-28T16:31:18;6.20;93.10
20288;DHT22;10303;51.960;8.372;2023-01-28T16:33:45;6.00;93.20
20288;DHT22;10303;51.960;8.372;2023-01-28T16:36:14;6.00;93.30
20288;DHT22;10303;51.960;8.372;2023-01-28T16:38:41;6.00;93.40
20288;DHT22;10303;51.960;8.372;2023-01-28T16:41:12;5.90;93.60
20288;DHT22;10303;51.960;8.372;2023-01-28T16:43:40;5.90;93.70
20288;DHT22;10303;51.960;8.372;2023-01-28T16:46:10;5.90;93.80
20288;DHT22;10303;51.960;8.372;2023-01-28T16:48:36;5.90;94.00
20288;DHT22;10303;51.960;8.372;2023-01-28T16:51:03;5.90;94.10
20288;DHT22;10303;51.960;8.372;2023-01-28T16:53:31;5.90;94.20
20288;DHT22;10303;51.960;8.372;2023-01-28T16:55:58;5.80;94.20
20288;DHT22;10303;51.960;8.372;2023-01-28T16:58:26;5.80;94.20
20288;DHT22;10303;51.960;8.372;2023-01-28T17:00:53;6.00;94.30
20288;DHT22;10303;51.960;8.372;2023-01-28T17:03:19;5.80;94.30
20288;DHT22;10303;51.960;8.372;2023-01-28T17:05:45;5.80;94.40
20288;DHT22;10303;51.960;8.372;2023-01-28T17:08:11;5.70;94.30
20288;DHT22;10303;51.960;8.372;2023-01-28T17:10:37;5.70;94.40
20288;DHT22;10303;51.960;8.372;2023-01-28T17:13:03;5.80;94.80
20288;DHT22;10303;51.960;8.372;2023-01-28T17:15:29;5.80;94.80
20288;DHT22;10303;51.960;8.372;2023-01-28T17:17:55;5.60;94.50
20288;DHT22;10303;51.960;8.372;2023-01-28T17:20:21;5.60;94.50
20288;DHT22;10303;51.960;8.372;2023-01-28T17:22:47;5.70;94.60
20288;DHT22;10303;51.960;8.372;2023-01-28T17:25:13;5.60;94.60
20288;DHT22;10303;51.960;8.372;2023-01-28T17:27:39;5.50;94.60
20288;DHT22;10303;51.960;8.372;2023-01-28T17:30:06;5.50;94.70
20288;DHT22;10303;51.960;8.372;2023-01-28T17:32:32;5.50;94.70
20288;DHT22;10303;51.960;8.372;2023-01-28T17:34:58;5.40;94.70
20288;DHT22;10303;51.960;8.372;2023-01-28T17:37:24;5.40;94.70
20288;DHT22;10303;51.960;8.372;2023-01-28T17:39:50;5.30;94.70
20288;DHT22;10303;51.960;8.372;2023-01-28T17:42:16;5.30;94.80
20288;DHT22;10303;51.960;8.372;2023-01-28T17:44:42;5.40;94.90
20288;DHT22;10303;51.960;8.372;2023-01-28T17:47:08;5.20;94.90
20288;DHT22;10303;51.960;8.372;2023-01-28T17:49:34;5.40;95.00
20288;DHT22;10303;51.960;8.372;2023-01-28T17:52:00;5.10;95.00
20288;DHT22;10303;51.960;8.372;2023-01-28T17:54:25;5.10;95.10
20288;DHT22;10303;51.960;8.372;2023-01-28T17:56:51;5.10;95.20
20288;DHT22;10303;51.960;8.372;2023-01-28T17:59:17;5.10;95.20
20288;DHT22;10303;51.960;8.372;2023-01-28T18:01:44;5.00;95.20
20288;DHT22;10303;51.960;8.372;2023-01-28T18:04:10;5.10;95.30
20288;DHT22;10303;51.960;8.372;2023-01-28T18:06:37;5.00;95.30
20288;DHT22;10303;51.960;8.372;2023-01-28T18:09:03;4.90;95.40
20288;DHT22;10303;51.960;8.372;2023-01-28T18:11:30;4.90;95.40
20288;DHT22;10303;51.960;8.372;2023-01-28T18:13:57;4.80;95.40
20288;DHT22;10303;51.960;8.372;2023-01-28T18:16:23;4.70;95.40
20288;DHT22;10303;51.960;8.372;2023-01-28T18:18:49;4.70;95.80